Time;durP1;ratioP1;P1;durP2;ratioP2;P2;SDS_P1;SDS_P2;PMS_P1;PMS_P2;Temp;Humidity;BMP_temperature;BMP_pressure;BME280_temperature;BME280_humidity;BME280_pressure;Samples;Min_cycle;Max_cycle;Signal;HPM_P1;HPM_P2
2023/12/21 00:01:40;;;;;;;;;;;;;;;9.99;100.00;100658.72;5112800;28;19922;-44
2023/12/21 00:04:06;;;;;;;;;;;;;;;10.00;100.00;100663.06;5112703;28;19920;-44
2023/12/21 00:06:31;;;;;;;;;;;;;;;9.97;100.00;100655.38;5112810;28;20321;-44
2023/12/21 00:08:57;;;;;;;;;;;;;;;10.00;100.00;100661.22;5112911;28;19920;-44
2023/12/21 00:11:22;;;;;;;;;;;;;;;10.00;100.00;100644.25;5112449;28;19919;-45
2023/12/21 00:13:47;;;;;;;;;;;;;;;9.99;100.00;100638.03;5112482;28;19997;-44
2023/12/21 00:16:12;;;;;;;;;;;;;;;9.99;100.00;100637.22;5112192;28;19920;-43
2023/12/21 00:18:38;;;;;;;;;;;;;;;9.97;100.00;100610.50;5111830;28;19927;-45
2023/12/21 00:21:03;;;;;;;;;;;;;;;10.01;100.00;100629.81;5112551;28;19916;-44
2023/12/21 00:23:28;;;;;;;;;;;;;;;9.99;100.00;100624.59;5112941;28;20326;-44
2023/12/21 00:25:53;;;;;;;;;;;;;;;9.94;100.00;100618.13;5112274;28;19919;-44
2023/12/21 00:28:19;;;;;;;;;;;;;;;10.00;100.00;100595.84;5112163;28;19927;-44
2023/12/21 00:30:44;;;;;;;;;;;;;;;9.98;100.00;100597.88;5111505;28;19927;-44
2023/12/21 00:33:09;;;;;;;;;;;;;;;9.92;100.00;100585.19;5112232;28;19919;-44
2023/12/21 00:35:34;;;;;;;;;;;;;;;9.94;100.00;100578.63;5112157;28;19943;-44
2023/12/21 00:38:00;;;;;;;;;;;;;;;9.91;100.00;100580.84;5111667;28;20006;-43
2023/12/21 00:40:25;;;;;;;;;;;;;;;9.95;100.00;100587.50;5112574;28;19915;-44
2023/12/21 00:42:51;;;;;;;;;;;;;;;9.93;100.00;100574.28;5111972;28;19938;-47
2023/12/21 00:45:16;;;;;;;;;;;;;;;9.94;100.00;100575.09;5111896;28;19920;-44
2023/12/21 00:47:41;;;;;;;;;;;;;;;9.91;100.00;100575.47;5111052;28;19919;-44
2023/12/21 00:50:06;;;;;;;;;;;;;;;9.91;100.00;100579.00;5112079;28;19927;-46
2023/12/21 00:52:31;;;;;;;;;;;;;;;9.91;100.00;100564.72;5111275;28;19920;-45
2023/12/21 00:54:57;;;;;;;;;;;;;;;9.88;100.00;100590.13;5111912;28;19920;-44
2023/12/21 00:57:23;;;;;;;;;;;;;;;9.89;100.00;100571.09;5111699;28;20014;-45
2023/12/21 00:59:48;;;;;;;;;;;;;;;9.85;100.00;100561.75;5112015;28;19980;-44
2023/12/21 01:02:13;;;;;;;;;;;;;;;9.84;100.00;100564.59;5111474;28;19995;-45
2023/12/21 01:04:38;;;;;;;;;;;;;;;9.87;100.00;100551.66;5111425;28;19999;-44
2023/12/21 01:07:04;;;;;;;;;;;;;;;9.93;100.00;100557.31;5111656;28;19920;-44
2023/12/21 01:09:29;;;;;;;;;;;;;;;9.93;100.00;100547.38;5111381;28;19962;-44
2023/12/21 01:11:54;;;;;;;;;;;;;;;9.93;100.00;100546.56;5111345;28;19919;-43
2023/12/21 01:14:21;;;;;;;;;;;;;;;9.96;100.00;100538.13;5111385;28;19920;-43
2023/12/21 01:16:46;;;;;;;;;;;;;;;9.91;100.00;100537.84;5111822;28;20019;-45
2023/12/21 01:19:11;;;;;;;;;;;;;;;9.94;100.00;100530.22;5111479;28;20300;-43
2023/12/21 01:21:37;;;;;;;;;;;;;;;9.94;100.00;100510.56;5111517;28;20425;-45
2023/12/21 01:24:05;;;;;;;;;;;;;;;9.95;100.00;100517.63;5110869;28;20127;-45
2023/12/21 01:26:30;;;;;;;;;;;;;;;9.89;100.00;100528.09;5115372;28;19963;-44
2023/12/21 01:28:55;;;;;;;;;;;;;;;9.88;100.00;100518.38;5115277;28;19923;-47
2023/12/21 01:31:20;;;;;;;;;;;;;;;9.91;100.00;100505.56;5115337;28;19927;-44
2023/12/21 01:33:46;;;;;;;;;;;;;;;9.87;100.00;100500.59;5114884;28;19920;-44
2023/12/21 01:36:11;;;;;;;;;;;;;;;9.92;100.00;100512.63;5115118;28;19919;-43
2023/12/21 01:38:36;;;;;;;;;;;;;;;9.88;100.00;100518.38;5114644;28;19919;-45
2023/12/21 01:41:01;;;;;;;;;;;;;;;9.87;100.00;100508.66;5114458;28;19974;-44
2023/12/21 01:43:26;;;;;;;;;;;;;;;9.89;100.00;100516.50;5114928;28;19919;-45
2023/12/21 01:45:52;;;;;;;;;;;;;;;9.92;100.00;100507.25;5114684;28;19928;-45
2023/12/21 01:48:18;;;;;;;;;;;;;;;9.93;100.00;100499.00;5113833;28;20122;-44
2023/12/21 01:50:43;;;;;;;;;;;;;;;9.86;100.00;100477.38;5114975;28;19923;-44
2023/12/21 01:53:09;;;;;;;;;;;;;;;9.81;100.00;100487.88;5113379;28;20326;-44
2023/12/21 01:55:34;;;;;;;;;;;;;;;9.83;100.00;100487.69;5114673;28;19919;-46
2023/12/21 01:58:00;;;;;;;;;;;;;;;9.81;100.00;100484.34;5114356;27;20014;-44
2023/12/21 02:00:25;;;;;;;;;;;;;;;9.80;100.00;100483.53;5113089;28;20277;-44
2023/12/21 02:02:50;;;;;;;;;;;;;;;9.85;100.00;100491.03;5114548;28;20358;-44
2023/12/21 02:05:15;;;;;;;;;;;;;;;9.84;100.00;100490.19;5114385;28;20517;-45
2023/12/21 02:07:41;;;;;;;;;;;;;;;9.84;100.00;100476.72;5113940;28;19959;-45
2023/12/21 02:10:06;;;;;;;;;;;;;;;9.80;100.00;100475.47;5112716;28;19943;-45
2023/12/21 02:12:31;;;;;;;;;;;;;;;9.82;100.00;100464.50;5114931;28;20301;-44
2023/12/21 02:14:57;;;;;;;;;;;;;;;9.81;100.00;100465.53;5114184;28;19920;-44
2023/12/21 02:17:22;;;;;;;;;;;;;;;9.85;100.00;100462.28;5114524;28;20347;-43
2023/12/21 02:19:47;;;;;;;;;;;;;;;9.88;100.00;100447.66;5114521;28;20335;-44
2023/12/21 02:22:13;;;;;;;;;;;;;;;9.87;100.00;100446.81;5113318;28;20382;-44
2023/12/21 02:24:38;;;;;;;;;;;;;;;9.87;100.00;100452.19;5114344;28;19930;-46
2023/12/21 02:27:04;;;;;;;;;;;;;;;9.87;100.00;100437.91;5112357;28;19924;-43
2023/12/21 02:29:29;;;;;;;;;;;;;;;9.85;100.00;100424.66;5114033;28;19920;-43
2023/12/21 02:31:54;;;;;;;;;;;;;;;9.86;100.00;100420.13;5114608;28;20060;-44
2023/12/21 02:34:19;;;;;;;;;;;;;;;9.88;100.00;100424.28;5114067;28;20010;-44
2023/12/21 02:36:44;;;;;;;;;;;;;;;9.87;100.00;100429.84;5113424;28;20015;-45
2023/12/21 02:39:10;;;;;;;;;;;;;;;9.88;100.00;100416.22;5114652;28;19920;-44
2023/12/21 02:41:35;;;;;;;;;;;;;;;9.89;100.00;100439.38;5113818;28;19965;-46
2023/12/21 02:44:00;;;;;;;;;;;;;;;9.91;100.00;100430.31;5113624;28;19920;-44
2023/12/21 02:46:26;;;;;;;;;;;;;;;9.88;100.00;100432.34;5113762;28;19927;-44
2023/12/21 02:48:51;;;;;;;;;;;;;;;9.89;100.00;100411.66;5114159;28;19920;-43
2023/12/21 02:51:17;;;;;;;;;;;;;;;9.85;100.00;100413.09;5113935;28;19920;-44
2023/12/21 02:53:42;;;;;;;;;;;;;;;9.84;100.00;100398.78;5113719;28;19924;-44
2023/12/21 02:56:07;;;;;;;;;;;;;;;9.83;100.00;100381.00;5113721;28;20399;-43
2023/12/21 02:58:32;;;;;;;;;;;;;;;9.84;100.00;100371.91;5113809;28;19920;-45
2023/12/21 03:00:58;;;;;;;;;;;;;;;9.84;100.00;100353.09;5113081;28;20002;-47
2023/12/21 03:03:23;;;;;;;;;;;;;;;9.84;100.00;100355.78;5113579;28;20014;-44
2023/12/21 03:05:48;;;;;;;;;;;;;;;9.92;100.00;100360.22;5113286;28;19963;-45
2023/12/21 03:08:13;;;;;;;;;;;;;;;9.88;100.00;100334.75;5113369;28;20010;-44
2023/12/21 03:10:38;;;;;;;;;;;;;;;9.91;100.00;100336.22;5112968;28;19926;-44
2023/12/21 03:13:04;;;;;;;;;;;;;;;9.88;100.00;100324.84;5112727;28;19932;-45
2023/12/21 03:15:29;;;;;;;;;;;;;;;9.86;100.00;100334.94;5113397;28;20001;-44
2023/12/21 03:17:54;;;;;;;;;;;;;;;9.88;100.00;100322.16;5113160;28;19919;-44
2023/12/21 03:20:19;;;;;;;;;;;;;;;9.92;100.00;100305.63;5112576;28;19923;-44
2023/12/21 03:22:45;;;;;;;;;;;;;;;9.87;100.00;100306.19;5113349;28;20290;-44
2023/12/21 03:25:10;;;;;;;;;;;;;;;9.91;100.00;100306.66;5112998;28;19926;-45
2023/12/21 03:27:36;;;;;;;;;;;;;;;9.87;100.00;100323.19;5112815;28;19924;-44
2023/12/21 03:30:01;;;;;;;;;;;;;;;9.94;100.00;100343.91;5112697;28;19916;-44
2023/12/21 03:32:27;;;;;;;;;;;;;;;9.96;100.00;100320.38;5113074;28;19920;-42
2023/12/21 03:34:52;;;;;;;;;;;;;;;9.94;100.00;100304.41;5112747;28;19915;-43
2023/12/21 03:37:17;;;;;;;;;;;;;;;9.93;100.00;100293.88;5112710;28;19972;-46
2023/12/21 03:39:42;;;;;;;;;;;;;;;9.98;100.00;100294.97;5112373;28;19927;-43
2023/12/21 03:42:08;;;;;;;;;;;;;;;9.96;100.00;100277.34;5112664;28;19922;-45
2023/12/21 03:44:33;;;;;;;;;;;;;;;9.96;100.00;100286.25;5112292;28;19942;-43
2023/12/21 03:46:58;;;;;;;;;;;;;;;9.96;100.00;100280.88;5111758;28;20286;-44
2023/12/21 03:49:28;;;;;;;;;;;;;;;9.97;100.00;100292.44;5112784;28;20282;-43
2023/12/21 03:51:53;;;;;;;;;;;;;;;10.00;100.00;100281.31;5112585;28;20015;-43
2023/12/21 03:54:19;;;;;;;;;;;;;;;9.96;100.00;100274.66;5112659;28;19959;-45
2023/12/21 03:56:44;;;;;;;;;;;;;;;9.95;100.00;100270.28;5111896;28;19965;-45
2023/12/21 03:59:10;;;;;;;;;;;;;;;9.97;100.00;100263.72;5112426;28;19952;-44
2023/12/21 04:01:36;;;;;;;;;;;;;;;9.93;100.00;100256.25;5114033;28;19970;-44
2023/12/21 04:04:01;;;;;;;;;;;;;;;9.94;100.00;100257.91;5114912;28;20309;-45
2023/12/21 04:06:26;;;;;;;;;;;;;;;9.93;100.00;100235.56;5114171;28;20475;-45
2023/12/21 04:08:54;;;;;;;;;;;;;;;9.89;100.00;100228.91;5113400;28;19919;-44
2023/12/21 04:11:19;;;;;;;;;;;;;;;9.92;100.00;100225.00;5111928;28;19919;-44
2023/12/21 04:13:46;;;;;;;;;;;;;;;9.94;100.00;100220.25;5112547;28;20459;-44
2023/12/21 04:16:11;;;;;;;;;;;;;;;9.89;100.00;100213.59;5111946;28;19922;-42
2023/12/21 04:18:37;;;;;;;;;;;;;;;9.91;100.00;100201.84;5112384;28;19920;-45
2023/12/21 04:21:02;;;;;;;;;;;;;;;9.81;100.00;100189.53;5112121;28;20338;-44
2023/12/21 04:23:27;;;;;;;;;;;;;;;9.88;100.00;100177.00;5111860;28;19920;-43
2023/12/21 04:25:53;;;;;;;;;;;;;;;9.87;100.00;100182.56;5111187;28;19920;-43
2023/12/21 04:28:18;;;;;;;;;;;;;;;9.89;100.00;100170.59;5112239;28;19916;-44
2023/12/21 04:30:43;;;;;;;;;;;;;;;9.95;100.00;100171.66;5112308;28;20223;-44
2023/12/21 04:33:10;;;;;;;;;;;;;;;9.88;100.00;100179.69;5111396;28;19980;-43
2023/12/21 04:35:35;;;;;;;;;;;;;;;9.87;100.00;100187.94;5112161;28;19952;-44
2023/12/21 04:38:01;;;;;;;;;;;;;;;9.92;100.00;100176.59;5111798;28;20018;-44
2023/12/21 04:40:26;;;;;;;;;;;;;;;9.96;100.00;100159.09;5111691;28;20434;-45
2023/12/21 04:42:55;;;;;;;;;;;;;;;9.89;100.00;100162.53;5112020;28;20319;-44
2023/12/21 04:45:20;;;;;;;;;;;;;;;9.91;100.00;100173.09;5111039;28;19919;-44
2023/12/21 04:47:45;;;;;;;;;;;;;;;9.93;100.00;100170.22;5111201;28;19920;-43
2023/12/21 04:50:10;;;;;;;;;;;;;;;9.90;100.00;100155.31;5111250;28;19919;-44
2023/12/21 04:52:36;;;;;;;;;;;;;;;9.92;100.00;100155.09;5110827;28;19985;-43
2023/12/21 04:55:01;;;;;;;;;;;;;;;9.96;100.00;100153.72;5111829;28;19949;-43
2023/12/21 04:57:26;;;;;;;;;;;;;;;10.00;100.00;100165.72;5110812;28;19920;-46
2023/12/21 04:59:51;;;;;;;;;;;;;;;9.99;100.00;100159.50;5113066;28;19931;-44
2023/12/21 05:02:17;;;;;;;;;;;;;;;10.02;100.00;100144.84;5115256;28;19924;-44
2023/12/21 05:04:42;;;;;;;;;;;;;;;10.09;100.00;100134.97;5115032;28;20019;-46
2023/12/21 05:07:10;;;;;;;;;;;;;;;10.06;100.00;100119.25;5115346;28;19977;-45
2023/12/21 05:09:35;;;;;;;;;;;;;;;10.03;100.00;100116.94;5115798;28;19920;-45
2023/12/21 05:12:01;;;;;;;;;;;;;;;10.04;100.00;100103.31;5115533;28;19926;-44
2023/12/21 05:14:26;;;;;;;;;;;;;;;10.05;100.00;100106.81;5115200;28;20374;-45
2023/12/21 05:16:51;;;;;;;;;;;;;;;9.97;100.00;100117.72;5108921;28;20049;-45
2023/12/21 05:19:17;;;;;;;;;;;;;;;10.02;100.00;100123.34;5112448;28;19920;-44
2023/12/21 05:21:43;;;;;;;;;;;;;;;9.98;100.00;100138.19;5115800;28;19916;-44
2023/12/21 05:24:08;;;;;;;;;;;;;;;9.91;100.00;100146.22;5115194;27;19916;-44
2023/12/21 05:26:34;;;;;;;;;;;;;;;9.90;100.00;100133.81;5115379;28;19932;-44
2023/12/21 05:28:59;;;;;;;;;;;;;;;9.86;100.00;100144.09;5116093;28;20291;-44
2023/12/21 05:31:24;;;;;;;;;;;;;;;9.89;100.00;100142.88;5114384;28;19955;-44
2023/12/21 05:33:49;;;;;;;;;;;;;;;9.84;100.00;100145.31;5114901;28;20000;-42
2023/12/21 05:36:21;;;;;;;;;;;;;;;9.86;100.00;100119.91;5113510;28;19919;-45
2023/12/21 05:38:47;;;;;;;;;;;;;;;9.88;100.00;100109.81;5115449;28;20557;-45
2023/12/21 05:41:12;;;;;;;;;;;;;;;9.85;100.00;100104.81;5115182;28;20309;-45
2023/12/21 05:43:37;;;;;;;;;;;;;;;9.90;100.00;100104.25;5114895;28;20320;-44
2023/12/21 05:46:03;;;;;;;;;;;;;;;9.93;100.00;100094.97;5111963;28;20011;-46
2023/12/21 05:48:29;;;;;;;;;;;;;;;9.95;100.00;100099.09;5112709;28;19926;-45
2023/12/21 05:50:54;;;;;;;;;;;;;;;9.99;100.00;100086.94;5112837;28;19920;-44
2023/12/21 05:53:19;;;;;;;;;;;;;;;9.98;100.00;100082.59;5111633;28;19935;-44
2023/12/21 05:55:44;;;;;;;;;;;;;;;10.07;100.00;100085.94;5112182;28;19930;-43
2023/12/21 05:58:10;;;;;;;;;;;;;;;10.10;100.00;100080.16;5111402;28;19931;-45
2023/12/21 06:00:37;;;;;;;;;;;;;;;10.09;100.00;100059.69;5111842;28;19927;-45
2023/12/21 06:03:02;;;;;;;;;;;;;;;10.15;100.00;100066.97;5114318;27;19967;-44
2023/12/21 06:05:27;;;;;;;;;;;;;;;10.19;100.00;100035.97;5115021;28;20425;-44
2023/12/21 06:07:52;;;;;;;;;;;;;;;10.15;100.00;100015.06;5114259;28;19976;-44
2023/12/21 06:10:18;;;;;;;;;;;;;;;10.16;100.00;100020.22;5114262;28;20275;-45
2023/12/21 06:12:43;;;;;;;;;;;;;;;10.15;100.00;100002.44;5115057;28;20033;-43
2023/12/21 06:15:08;;;;;;;;;;;;;;;10.21;100.00;100007.00;5115150;28;19939;-44
2023/12/21 06:17:34;;;;;;;;;;;;;;;10.18;100.00;100010.09;5115229;28;20283;-45
2023/12/21 06:19:59;;;;;;;;;;;;;;;10.22;100.00;100002.47;5114958;28;19916;-45
2023/12/21 06:22:24;;;;;;;;;;;;;;;10.19;100.00;99976.81;5114765;28;19962;-45
2023/12/21 06:24:49;;;;;;;;;;;;;;;10.16;100.00;99987.94;5115306;28;20006;-44
2023/12/21 06:27:15;;;;;;;;;;;;;;;10.22;100.00;99995.25;5115548;28;19923;-43
2023/12/21 06:29:41;;;;;;;;;;;;;;;10.20;100.00;99986.53;5114789;27;19993;-45
2023/12/21 06:32:06;;;;;;;;;;;;;;;10.21;100.00;100000.81;5101542;28;19928;-43
2023/12/21 06:34:31;;;;;;;;;;;;;;;10.22;100.00;99962.97;5114588;28;19920;-45
2023/12/21 06:36:57;;;;;;;;;;;;;;;10.27;100.00;99957.00;5114519;28;19920;-44
2023/12/21 06:39:22;;;;;;;;;;;;;;;10.25;100.00;99975.19;5114608;28;19980;-44
2023/12/21 06:41:47;;;;;;;;;;;;;;;10.31;100.00;99948.31;5114115;28;19942;-43
2023/12/21 06:44:12;;;;;;;;;;;;;;;10.30;100.00;99962.00;5114215;28;20324;-44
2023/12/21 06:46:38;;;;;;;;;;;;;;;10.32;100.00;99952.69;5114122;28;20322;-43
2023/12/21 06:49:03;;;;;;;;;;;;;;;10.32;100.00;99952.69;5114281;28;19916;-44
2023/12/21 06:51:28;;;;;;;;;;;;;;;10.35;100.00;99934.47;5114709;28;19915;-46
2023/12/21 06:53:53;;;;;;;;;;;;;;;10.33;100.00;99916.69;5114414;28;19916;-43
2023/12/21 06:56:19;;;;;;;;;;;;;;;10.35;100.00;99907.56;5113701;28;20327;-45
2023/12/21 06:58:44;;;;;;;;;;;;;;;10.38;100.00;99918.78;5113382;28;19962;-45
2023/12/21 07:01:10;;;;;;;;;;;;;;;10.42;100.00;99906.56;5114280;28;19915;-45
2023/12/21 07:03:35;;;;;;;;;;;;;;;10.35;100.00;99888.75;5114319;28;19922;-44
2023/12/21 07:06:00;;;;;;;;;;;;;;;10.31;100.00;99905.28;5113972;28;19920;-44
2023/12/21 07:08:25;;;;;;;;;;;;;;;10.22;100.00;99895.75;5113432;28;19972;-47
2023/12/21 07:10:53;;;;;;;;;;;;;;;10.19;100.00;99898.84;5113433;28;20048;-44
2023/12/21 07:13:18;;;;;;;;;;;;;;;10.15;100.00;99888.69;5113835;28;19919;-44
2023/12/21 07:15:43;;;;;;;;;;;;;;;10.21;100.00;99888.69;5113459;28;20319;-44
2023/12/21 07:18:08;;;;;;;;;;;;;;;10.19;100.00;99890.78;5113221;28;19949;-45
2023/12/21 07:20:33;;;;;;;;;;;;;;;10.20;100.00;99889.72;5113735;28;20457;-45
2023/12/21 07:22:59;;;;;;;;;;;;;;;10.16;100.00;99890.31;5112800;28;20378;-47
2023/12/21 07:25:24;;;;;;;;;;;;;;;10.13;100.00;99901.50;5113208;28;20458;-44
2023/12/21 07:27:49;;;;;;;;;;;;;;;10.07;100.00;99887.00;5112936;28;20389;-45
2023/12/21 07:30:15;;;;;;;;;;;;;;;10.02;100.00;99884.91;5113442;28;20423;-46
2023/12/21 07:32:40;;;;;;;;;;;;;;;10.02;100.00;99882.22;5113773;27;19916;-45
2023/12/21 07:35:06;;;;;;;;;;;;;;;10.05;100.00;99908.69;5113460;28;19969;-44
2023/12/21 07:37:31;;;;;;;;;;;;;;;10.09;100.00;99874.19;5113368;28;19919;-45
2023/12/21 07:39:56;;;;;;;;;;;;;;;10.11;100.00;99867.59;5113136;28;19923;-45
2023/12/21 07:42:21;;;;;;;;;;;;;;;10.13;100.00;99896.13;5114677;27;19969;-43
2023/12/21 07:44:47;;;;;;;;;;;;;;;10.20;100.00;99867.41;5130754;27;19919;-42
2023/12/21 07:47:12;;;;;;;;;;;;;;;10.20;100.00;99856.63;5112438;28;19919;-44
2023/12/21 07:49:37;;;;;;;;;;;;;;;10.23;100.00;99867.81;5110453;28;19926;-41
2023/12/21 07:52:02;;;;;;;;;;;;;;;10.26;100.00;99859.31;5111916;28;19924;-41
2023/12/21 07:54:28;;;;;;;;;;;;;;;10.28;100.00;99860.00;5113405;28;19980;-41
2023/12/21 07:56:53;;;;;;;;;;;;;;;10.31;100.00;99851.50;5097463;28;19916;-41
2023/12/21 07:59:19;;;;;;;;;;;;;;;10.32;100.00;99871.16;5112330;28;20002;-41
2023/12/21 08:01:45;;;;;;;;;;;;;;;10.33;100.00;99843.25;5113058;27;19916;-42
2023/12/21 08:04:11;;;;;;;;;;;;;;;10.33;100.00;99827.09;5112486;28;20312;-40
2023/12/21 08:06:36;;;;;;;;;;;;;;;10.33;100.00;99809.09;5111976;28;19927;-41
2023/12/21 08:09:01;;;;;;;;;;;;;;;10.39;100.00;99822.78;5114064;28;20269;-42
2023/12/21 08:11:27;;;;;;;;;;;;;;;10.42;100.00;99822.34;5113449;28;19926;-40
2023/12/21 08:13:52;;;;;;;;;;;;;;;10.41;100.00;99843.03;5105921;28;20275;-41
2023/12/21 08:16:17;;;;;;;;;;;;;;;10.47;100.00;99836.00;5114501;27;19920;-40
2023/12/21 08:18:44;;;;;;;;;;;;;;;10.46;100.00;99815.53;5112548;28;19919;-42
2023/12/21 08:21:09;;;;;;;;;;;;;;;10.48;100.00;99827.75;5112675;28;20355;-41
2023/12/21 08:23:34;;;;;;;;;;;;;;;10.50;100.00;99824.84;5113316;28;19946;-41
2023/12/21 08:25:59;;;;;;;;;;;;;;;10.49;100.00;99829.41;5112236;28;19970;-42
2023/12/21 08:28:29;;;;;;;;;;;;;;;10.48;100.00;99825.06;5108952;27;19984;-40
2023/12/21 08:30:54;;;;;;;;;;;;;;;10.55;100.00;99828.56;5112833;28;19926;-40
2023/12/21 08:33:19;;;;;;;;;;;;;;;10.53;100.00;99816.34;5112406;28;20270;-42
2023/12/21 08:35:45;;;;;;;;;;;;;;;10.57;100.00;99828.38;5111613;28;20243;-41
2023/12/21 08:38:11;;;;;;;;;;;;;;;10.58;100.00;99834.56;5111811;28;20031;-41
2023/12/21 08:40:36;;;;;;;;;;;;;;;10.62;100.00;99831.25;5111889;28;20422;-41
2023/12/21 08:43:02;;;;;;;;;;;;;;;10.63;100.00;99818.63;5112230;28;20023;-40
2023/12/21 08:45:27;;;;;;;;;;;;;;;10.65;100.00;99822.78;5112812;28;19927;-40
2023/12/21 08:47:54;;;;;;;;;;;;;;;10.64;100.00;99815.75;5112402;28;20355;-40
2023/12/21 08:50:19;;;;;;;;;;;;;;;10.67;100.00;99825.28;5123548;28;19920;-43
2023/12/21 08:52:44;;;;;;;;;;;;;;;10.67;100.00;99820.72;5111872;28;19972;-41
2023/12/21 08:55:10;;;;;;;;;;;;;;;10.68;100.00;99824.22;5112185;28;19920;-41
2023/12/21 08:57:38;;;;;;;;;;;;;;;10.68;100.00;99838.50;5112090;28;19912;-41
2023/12/21 09:00:05;;;;;;;;;;;;;;;10.67;100.00;99831.47;5112737;28;19920;-41
2023/12/21 09:02:31;;;;;;;;;;;;;;;10.68;100.00;99830.44;5112650;28;19924;-40
2023/12/21 09:04:56;;;;;;;;;;;;;;;10.67;100.00;99836.03;5111809;28;20254;-41
2023/12/21 09:07:24;;;;;;;;;;;;;;;10.65;100.00;99855.06;5111984;28;19974;-41
2023/12/21 09:09:49;;;;;;;;;;;;;;;10.63;100.00;99832.09;5112691;28;20243;-42
2023/12/21 09:12:14;;;;;;;;;;;;;;;10.57;100.00;99844.50;5112119;28;19920;-42
2023/12/21 09:14:39;;;;;;;;;;;;;;;10.54;100.00;99861.88;5111394;28;19919;-41
2023/12/21 09:17:05;;;;;;;;;;;;;;;10.46;100.00;99839.75;5111659;28;19920;-41
2023/12/21 09:19:32;;;;;;;;;;;;;;;10.36;100.00;99832.06;5101991;28;19927;-41
2023/12/21 09:21:58;;;;;;;;;;;;;;;10.31;100.00;99848.00;5106632;28;19919;-41
2023/12/21 09:24:23;;;;;;;;;;;;;;;10.31;100.00;99843.44;5112848;28;20026;-41
2023/12/21 09:26:49;;;;;;;;;;;;;;;10.35;100.00;99829.56;5111652;28;19926;-41
2023/12/21 09:29:14;;;;;;;;;;;;;;;10.31;100.00;99838.06;5112430;28;19919;-40
2023/12/21 09:31:39;;;;;;;;;;;;;;;10.33;100.00;99825.25;5111467;28;19920;-41
2023/12/21 09:34:07;;;;;;;;;;;;;;;10.32;100.00;99823.59;5111339;28;19928;-40
2023/12/21 09:36:32;;;;;;;;;;;;;;;10.37;100.00;99819.44;5111609;28;20301;-40
2023/12/21 09:38:57;;;;;;;;;;;;;;;10.39;100.00;99825.47;5111498;28;19928;-42
2023/12/21 09:41:23;;;;;;;;;;;;;;;10.46;100.00;99821.75;5111056;28;19931;-39
2023/12/21 09:43:48;;;;;;;;;;;;;;;10.51;100.00;99818.44;5111967;28;19919;-41
2023/12/21 09:46:14;;;;;;;;;;;;;;;10.53;100.00;99813.66;5113317;28;20413;-41
2023/12/21 09:48:40;;;;;;;;;;;;;;;10.61;100.00;99826.94;5114468;28;19915;-42
2023/12/21 09:51:05;;;;;;;;;;;;;;;10.65;100.00;99808.50;5093922;27;19926;-41
2023/12/21 09:53:31;;;;;;;;;;;;;;;10.66;100.00;99816.34;5095392;28;19920;-40
2023/12/21 09:55:57;;;;;;;;;;;;;;;10.70;100.00;99816.78;5115592;28;20607;-40
2023/12/21 09:58:22;;;;;;;;;;;;;;;10.72;100.00;99815.53;5113572;28;20002;-42
2023/12/21 10:00:47;;;;;;;;;;;;;;;10.71;100.00;99827.31;5114969;28;19962;-41
2023/12/21 10:03:13;;;;;;;;;;;;;;;10.74;100.00;99835.00;5114948;28;20022;-41
2023/12/21 10:05:39;;;;;;;;;;;;;;;10.75;100.00;99825.88;5122427;27;19977;-38
2023/12/21 10:08:05;;;;;;;;;;;;;;;10.73;100.00;99814.47;5114252;28;19920;-38
2023/12/21 10:10:30;;;;;;;;;;;;;;;10.70;100.00;99806.00;5113623;27;20397;-37
2023/12/21 10:12:55;;;;;;;;;;;;;;;10.66;100.00;99805.59;5115249;28;19965;-38
2023/12/21 10:15:21;;;;;;;;;;;;;;;10.68;100.00;99821.53;5119538;27;19935;-38
2023/12/21 10:17:46;;;;;;;;;;;;;;;10.66;100.00;99816.34;5115276;28;19969;-38
2023/12/21 10:20:12;;;;;;;;;;;;;;;10.64;100.00;99813.06;5114998;28;19920;-38
2023/12/21 10:22:40;;;;;;;;;;;;;;;10.63;100.00;99816.75;5114820;28;19950;-38
2023/12/21 10:25:07;;;;;;;;;;;;;;;10.64;100.00;99823.00;5116311;28;19926;-38
2023/12/21 10:27:33;;;;;;;;;;;;;;;10.63;100.00;99797.94;5107107;27;20424;-38
2023/12/21 10:29:58;;;;;;;;;;;;;;;10.66;100.00;99813.66;5116752;28;19924;-38
2023/12/21 10:32:23;;;;;;;;;;;;;;;10.64;100.00;99802.28;5115149;28;19924;-39
2023/12/21 10:34:49;;;;;;;;;;;;;;;10.56;100.00;99794.44;5115989;27;19920;-39
2023/12/21 10:37:17;;;;;;;;;;;;;;;10.56;100.00;99807.88;5114411;27;20366;-39
2023/12/21 10:39:42;;;;;;;;;;;;;;;10.55;100.00;99798.16;5114460;27;19963;-38
2023/12/21 10:42:07;;;;;;;;;;;;;;;10.58;100.00;99807.66;5114802;28;19952;-38
2023/12/21 10:44:33;;;;;;;;;;;;;;;10.62;100.00;99801.66;5113978;28;19931;-39
2023/12/21 10:46:58;;;;;;;;;;;;;;;10.64;100.00;99821.13;5110929;27;19985;-40
2023/12/21 10:49:23;;;;;;;;;;;;;;;10.64;100.00;99825.69;5101923;28;19924;-39
2023/12/21 10:51:49;;;;;;;;;;;;;;;10.58;100.00;99802.28;5113060;28;19919;-39
2023/12/21 10:54:14;;;;;;;;;;;;;;;10.65;100.00;99798.56;5114572;28;19976;-37
2023/12/21 10:56:42;;;;;;;;;;;;;;;10.64;100.00;99791.53;5111951;28;19920;-39
2023/12/21 10:59:08;;;;;;;;;;;;;;;10.65;100.00;99809.31;5114410;28;20263;-39
2023/12/21 11:01:33;;;;;;;;;;;;;;;10.60;100.00;99801.03;5114558;27;19934;-38
2023/12/21 11:04:01;;;;;;;;;;;;;;;10.65;100.00;99787.78;5114518;28;20484;-37
2023/12/21 11:06:27;;;;;;;;;;;;;;;10.68;100.00;99781.16;5127525;27;19920;-39
2023/12/21 11:08:52;;;;;;;;;;;;;;;10.73;100.00;99784.88;5112362;28;19926;-39
2023/12/21 11:11:22;;;;;;;;;;;;;;;10.79;100.00;99763.56;5119036;27;19919;-39
2023/12/21 11:13:49;;;;;;;;;;;;;;;10.84;100.00;99782.59;5114460;28;19934;-39
2023/12/21 11:16:15;;;;;;;;;;;;;;;10.94;100.00;99743.44;5114439;28;19915;-39
2023/12/21 11:18:40;;;;;;;;;;;;;;;11.11;100.00;99770.75;5112675;27;20030;-39
2023/12/21 11:21:05;;;;;;;;;;;;;;;11.07;100.00;99757.91;5130386;27;19919;-39
2023/12/21 11:23:31;;;;;;;;;;;;;;;11.05;100.00;99739.25;5131958;27;19959;-41
2023/12/21 11:25:57;;;;;;;;;;;;;;;11.12;100.00;99750.03;5111778;28;19951;-44
2023/12/21 11:28:27;;;;;;;;;;;;;;;11.10;100.00;99742.16;5111384;28;19934;-46
2023/12/21 11:30:53;;;;;;;;;;;;;;;11.15;100.00;99734.25;5113623;28;19920;-44
2023/12/21 11:33:18;;;;;;;;;;;;;;;11.24;100.00;99731.31;5112667;28;19923;-44
2023/12/21 11:35:51;;;;;;;;;;;;;;;11.25;100.00;99716.84;5113270;28;19927;-43
2023/12/21 11:38:16;;;;;;;;;;;;;;;11.29;100.00;99728.81;5113074;28;20109;-44
2023/12/21 11:40:42;;;;;;;;;;;;;;;11.29;100.00;99728.81;5114007;28;19947;-44
2023/12/21 11:43:08;;;;;;;;;;;;;;;11.24;100.00;99715.97;5112554;28;20381;-43
2023/12/21 11:45:34;;;;;;;;;;;;;;;11.23;100.00;99725.13;5113607;28;19968;-43
2023/12/21 11:48:01;;;;;;;;;;;;;;;11.23;100.00;99713.53;5113487;28;19923;-43
2023/12/21 11:50:30;;;;;;;;;;;;;;;11.27;100.00;99714.72;5113316;28;19916;-44
2023/12/21 11:53:06;;;;;;;;;;;;;;;11.24;100.00;99704.38;5113362;28;20015;-45
2023/12/21 11:55:35;;;;;;;;;;;;;;;11.23;100.00;99721.59;5112893;28;20259;-44
2023/12/21 11:58:06;;;;;;;;;;;;;;;11.26;100.00;99730.06;5113912;28;20289;-44
2023/12/21 12:00:32;;;;;;;;;;;;;;;11.20;100.00;99707.50;5113271;28;19916;-44
2023/12/21 12:02:58;;;;;;;;;;;;;;;11.20;100.00;99695.91;5112931;28;20254;-45
2023/12/21 12:05:23;;;;;;;;;;;;;;;11.21;100.00;99717.22;5110972;28;19920;-43
2023/12/21 12:07:48;;;;;;;;;;;;;;;11.19;100.00;99719.34;5112618;28;20010;-45
2023/12/21 12:10:14;;;;;;;;;;;;;;;11.18;100.00;99723.06;5114715;27;19926;-45
2023/12/21 12:12:40;;;;;;;;;;;;;;;11.17;100.00;99712.50;5123017;27;19920;-45
2023/12/21 12:15:06;;;;;;;;;;;;;;;11.13;100.00;99687.84;5113822;27;20014;-44
2023/12/21 12:17:31;;;;;;;;;;;;;;;11.10;100.00;99703.63;5113602;28;19959;-44
2023/12/21 12:19:56;;;;;;;;;;;;;;;11.07;100.00;99704.06;5113572;28;20281;-44
2023/12/21 12:22:22;;;;;;;;;;;;;;;11.08;100.00;99697.63;5113167;28;19923;-44
2023/12/21 12:24:49;;;;;;;;;;;;;;;11.08;100.00;99687.66;5113027;28;19978;-44
2023/12/21 12:27:14;;;;;;;;;;;;;;;11.04;100.00;99689.16;5112791;28;19915;-44